Terminal Aerodrome Forecast
Issued by NWS

Home | Current Version | Previous Version | Text Only | Print | Product List | Glossary On
Versions: 1 2 3 4 5 6 7 8 9 10 11 12 13 14
908
FTUS45 KFGZ 280528
TAFSEZ
TAF
KSEZ 280528Z 2806/2906 VRB06KT P6SM BKN250
     FM281200 04015KT P6SM SCT200
     FM281500 VRB05KT P6SM SCT060 BKN100
     FM281800 24012G24KT P6SM BKN010
     FM290100 34015G25KT P6SM BKN080=

USA.gov is the U.S. government's official web portal to all federal, state and local government web resources and services.